Time;durP1;ratioP1;P1;durP2;ratioP2;P2;SDS_P1;SDS_P2;PMS_P1;PMS_P2;Temp;Humidity;BMP_temperature;BMP_pressure;BME280_temperature;BME280_humidity;BME280_pressure;Samples;Min_cycle;Max_cycle;Signal;HPM_P1;HPM_P2
2021/11/29 00:02:12;;;;;;;13.03;8.65;;;;;;;10.49;100.00;98944.33;1730117;82;21766;-79
2021/11/29 00:05:17;;;;;;;24.65;12.28;;;;;;;10.53;100.00;98943.89;1734192;82;21342;-79
2021/11/29 00:08:23;;;;;;;17.17;11.95;;;;;;;10.53;100.00;98946.62;1764247;80;21315;-79
2021/11/29 00:11:30;;;;;;;17.70;11.20;;;;;;;10.56;100.00;98953.05;1736594;82;21342;-79
2021/11/29 00:14:35;;;;;;;13.65;9.53;;;;;;;10.58;100.00;98959.98;1721497;82;21335;-79
2021/11/29 00:17:42;;;;;;;18.12;11.60;;;;;;;10.60;100.00;98967.98;1733258;82;21193;-79
2021/11/29 00:20:50;;;;;;;16.62;12.07;;;;;;;10.62;100.00;98968.61;1732368;82;21358;-79
2021/11/29 00:23:58;;;;;;;19.17;12.83;;;;;;;10.65;100.00;98971.77;1732843;81;21269;-79
2021/11/29 00:27:05;;;;;;;22.40;11.53;;;;;;;10.67;100.00;98969.66;1732942;82;21776;-79
2021/11/29 00:30:15;;;;;;;24.63;12.07;;;;;;;10.72;100.00;98958.09;1791456;79;21230;-79
2021/11/29 00:33:21;;;;;;;16.45;11.80;;;;;;;10.74;100.00;98954.64;1795137;79;21160;-79
2021/11/29 00:36:27;;;;;;;14.53;10.58;;;;;;;10.78;100.00;98951.80;1734976;82;21212;-79
2021/11/29 00:39:34;;;;;;;15.63;11.53;;;;;;;10.82;100.00;98951.70;1732424;82;21208;-79
2021/11/29 00:42:41;;;;;;;18.17;12.88;;;;;;;10.82;100.00;98942.63;1794256;79;21751;-79
2021/11/29 00:45:47;;;;;;;20.40;14.63;;;;;;;10.78;100.00;98955.91;1797128;79;21320;-79
2021/11/29 00:48:54;;;;;;;19.80;13.43;;;;;;;10.77;100.00;98953.36;1791406;79;21179;-79
2021/11/29 00:52:00;;;;;;;21.97;14.18;;;;;;;10.77;100.00;98961.03;1794657;79;21226;-79
2021/11/29 00:55:06;;;;;;;19.75;14.50;;;;;;;10.80;100.00;98959.26;1802585;79;21196;-79
2021/11/29 00:58:12;;;;;;;18.32;14.90;;;;;;;10.82;100.00;98961.27;1797637;79;21359;-79
2021/11/29 01:01:18;;;;;;;17.80;14.03;;;;;;;10.83;100.00;98950.64;1796997;79;21221;-79
2021/11/29 01:04:25;;;;;;;27.07;13.03;;;;;;;10.84;100.00;98937.27;1791214;79;21339;-79
2021/11/29 01:07:31;;;;;;;22.73;14.75;;;;;;;10.84;100.00;98935.91;1811009;79;21822;-79
2021/11/29 01:10:37;;;;;;;26.25;13.78;;;;;;;10.84;100.00;98927.70;1796009;79;21209;-79
2021/11/29 01:13:42;;;;;;;15.72;12.37;;;;;;;10.85;100.00;98924.44;1797275;79;21307;-79
2021/11/29 01:16:50;;;;;;;14.38;12.18;;;;;;;10.83;100.00;98932.86;1728530;82;21347;-79
2021/11/29 01:19:55;;;;;;;18.82;12.00;;;;;;;10.77;100.00;98921.38;1737773;82;22499;-79
2021/11/29 01:23:01;;;;;;;15.15;11.68;;;;;;;10.74;100.00;98921.29;1757172;80;21267;-79
2021/11/29 01:26:06;;;;;;;19.35;12.55;;;;;;;10.72;100.00;98915.70;1729779;82;21362;-79
2021/11/29 01:29:11;;;;;;;13.35;10.98;;;;;;;10.64;100.00;98905.00;1732385;82;21921;-78
2021/11/29 01:32:17;;;;;;;15.58;12.88;;;;;;;10.59;100.00;98905.63;1793033;79;21246;-78
2021/11/29 01:35:22;;;;;;;14.83;12.50;;;;;;;10.56;100.00;98905.20;1802937;79;21292;-78
2021/11/29 01:38:27;;;;;;;17.00;12.00;;;;;;;10.55;100.00;98910.36;1796519;79;21383;-79
2021/11/29 01:41:33;;;;;;;20.68;14.28;;;;;;;10.57;100.00;98908.25;1736712;82;21349;-78
2021/11/29 01:44:40;;;;;;;18.98;14.28;;;;;;;10.58;100.00;98902.56;1733351;82;21919;-78
2021/11/29 01:47:45;;;;;;;18.02;13.75;;;;;;;10.60;100.00;98897.73;1730821;82;21331;-79
2021/11/29 01:50:53;;;;;;;17.62;13.75;;;;;;;10.62;100.00;98898.88;1732328;82;21339;-78
2021/11/29 01:53:59;;;;;;;14.58;10.43;;;;;;;10.62;100.00;98887.95;1794969;79;21226;-78
2021/11/29 01:57:04;;;;;;;20.27;14.63;;;;;;;10.60;100.00;98888.16;1791057;79;21313;-78
2021/11/29 02:00:12;;;;;;;20.37;13.53;;;;;;;10.59;100.00;98889.23;1788739;79;21350;-78
2021/11/29 02:03:18;;;;;;;21.07;15.85;;;;;;;10.58;100.00;98882.58;1801813;79;21374;-79
2021/11/29 02:06:24;;;;;;;19.05;13.18;;;;;;;10.57;100.00;98887.21;1731147;83;21311;-78
2021/11/29 02:09:29;;;;;;;17.55;12.73;;;;;;;10.58;100.00;98883.41;1738161;82;21787;-78
2021/11/29 02:12:36;;;;;;;16.67;12.30;;;;;;;10.58;100.00;98875.74;1730340;82;21750;-79
2021/11/29 02:15:42;;;;;;;19.75;15.25;;;;;;;10.59;100.00;98876.08;1756250;80;21361;-78
2021/11/29 02:18:47;;;;;;;19.70;15.18;;;;;;;10.59;100.00;98875.55;1792181;79;21347;-78
2021/11/29 02:21:54;;;;;;;16.87;12.93;;;;;;;10.59;100.00;98879.66;1792515;79;21913;-78
2021/11/29 02:24:59;;;;;;;20.68;14.35;;;;;;;10.60;100.00;98864.92;1804012;79;21323;-78
2021/11/29 02:28:05;;;;;;;24.23;14.90;;;;;;;10.59;100.00;98863.78;1809298;79;21295;-78
2021/11/29 02:31:16;;;;;;;21.23;14.47;;;;;;;10.56;100.00;98853.25;1794728;79;21328;-78
2021/11/29 02:34:24;;;;;;;18.85;14.47;;;;;;;10.54;100.00;98848.50;1728208;82;21891;-79
2021/11/29 02:37:30;;;;;;;21.80;15.60;;;;;;;10.52;100.00;98842.42;1734509;82;21178;-78
2021/11/29 02:40:36;;;;;;;20.12;13.95;;;;;;;10.49;100.00;98848.64;1759653;80;21316;-78
2021/11/29 02:43:42;;;;;;;25.43;16.10;;;;;;;10.47;100.00;98837.06;1769086;81;21268;-78
2021/11/29 02:46:47;;;;;;;31.55;19.10;;;;;;;10.45;100.00;98835.08;1735481;82;21275;-78
2021/11/29 02:49:53;;;;;;;27.65;17.05;;;;;;;10.42;100.00;98834.66;1733243;83;21866;-78
2021/11/29 02:52:59;;;;;;;24.82;17.12;;;;;;;10.41;100.00;98823.41;1732861;83;21324;-78
2021/11/29 02:56:05;;;;;;;24.37;15.35;;;;;;;10.41;100.00;98817.94;1733058;82;21736;-78
2021/11/29 02:59:10;;;;;;;23.50;16.70;;;;;;;10.40;100.00;98829.41;1727660;82;21874;-79
2021/11/29 03:02:19;;;;;;;21.95;15.10;;;;;;;10.41;100.00;98809.74;1734741;82;21208;-78
2021/11/29 03:05:25;;;;;;;23.60;14.70;;;;;;;10.42;100.00;98798.59;1734496;82;21686;-79
2021/11/29 03:08:30;;;;;;;23.00;14.90;;;;;;;10.41;100.00;98798.28;1758330;81;21229;-78
2021/11/29 03:11:36;;;;;;;25.12;17.10;;;;;;;10.39;100.00;98792.17;1732548;82;21258;-78
2021/11/29 03:14:42;;;;;;;27.87;17.02;;;;;;;10.36;100.00;98801.34;1732976;82;21327;-78
2021/11/29 03:17:48;;;;;;;22.98;14.03;;;;;;;10.33;100.00;98808.06;1736390;82;21355;-78
2021/11/29 03:20:54;;;;;;;19.60;13.28;;;;;;;10.31;100.00;98800.61;1725271;82;21315;-78
2021/11/29 03:24:03;;;;;;;16.15;12.35;;;;;;;10.25;100.00;98798.70;1729111;82;21292;-78
2021/11/29 03:27:09;;;;;;;12.98;11.08;;;;;;;10.19;100.00;98803.61;1798053;79;21303;-78
2021/11/29 03:30:16;;;;;;;10.93;8.75;;;;;;;10.10;100.00;98814.44;1801517;79;21268;-78
2021/11/29 03:33:22;;;;;;;10.95;8.58;;;;;;;9.99;100.00;98818.11;1788309;79;21324;-78
2021/11/29 03:36:28;;;;;;;20.45;9.05;;;;;;;9.88;100.00;98824.20;1793943;79;21326;-80
2021/11/29 03:39:34;;;;;;;13.60;9.28;;;;;;;9.79;100.00;98826.81;1801597;79;21893;-79
2021/11/29 03:42:40;;;;;;;12.80;9.00;;;;;;;9.72;100.00;98828.14;1802909;79;21863;-79
2021/11/29 03:45:47;;;;;;;14.13;8.70;;;;;;;9.64;100.00;98835.16;1800566;79;21201;-79
2021/11/29 03:48:53;;;;;;;10.35;9.23;;;;;;;9.63;100.00;98839.47;1796199;79;21189;-79
2021/11/29 03:51:59;;;;;;;10.45;9.30;;;;;;;9.61;100.00;98840.20;1798192;79;21850;-79
2021/11/29 03:55:04;;;;;;;16.17;11.00;;;;;;;9.59;100.00;98830.84;1785128;79;21307;-79
2021/11/29 03:58:10;;;;;;;13.53;10.98;;;;;;;9.59;100.00;98834.09;1791625;79;21323;-78
2021/11/29 04:01:16;;;;;;;10.20;9.08;;;;;;;9.54;100.00;98839.33;1738630;82;21879;-78
2021/11/29 04:04:23;;;;;;;18.32;11.45;;;;;;;9.51;100.00;98837.03;1732200;82;21347;-78
2021/11/29 04:07:29;;;;;;;12.68;9.50;;;;;;;9.52;100.00;98822.33;1765637;80;21873;-78
2021/11/29 04:10:35;;;;;;;12.07;10.13;;;;;;;9.51;100.00;98820.13;1794045;80;21303;-79
2021/11/29 04:13:42;;;;;;;9.28;8.28;;;;;;;9.48;100.00;98815.91;1799123;79;21327;-79
2021/11/29 04:16:48;;;;;;;9.23;7.95;;;;;;;9.43;100.00;98821.15;1799723;79;21307;-79
2021/11/29 04:19:54;;;;;;;9.80;8.80;;;;;;;9.42;100.00;98826.82;1764437;79;21842;-79
2021/11/29 04:23:00;;;;;;;9.33;8.30;;;;;;;9.38;100.00;98808.64;1770993;80;21345;-79
2021/11/29 04:26:06;;;;;;;10.55;8.23;;;;;;;9.34;100.00;98799.18;1700853;82;21328;-79
2021/11/29 04:29:25;;;;;;;12.80;8.73;;;;;;;9.31;100.00;98805.03;1730104;81;21316;-79
2021/11/29 04:32:20;;;;;;;8.58;6.92;;;;;;;9.31;100.00;98817.31;1732783;83;21934;-79
2021/11/29 04:35:27;;;;;;;16.75;7.42;;;;;;;9.29;100.00;98800.32;1734182;81;21875;-79
2021/11/29 04:38:32;;;;;;;7.42;6.65;;;;;;;9.29;100.00;98797.59;1675350;83;21942;-79
2021/11/29 04:41:39;;;;;;;9.18;7.47;;;;;;;9.29;100.00;98808.50;1765336;80;21236;-79
2021/11/29 04:44:44;;;;;;;9.20;8.20;;;;;;;9.29;100.00;98786.67;1765674;80;21314;-79
2021/11/29 04:47:50;;;;;;;8.78;6.95;;;;;;;9.30;100.00;98784.26;1764330;80;21171;-79
2021/11/29 04:50:56;;;;;;;10.05;7.65;;;;;;;9.35;100.00;98798.66;1771221;80;21335;-79
2021/11/29 04:54:02;;;;;;;9.08;7.60;;;;;;;9.37;100.00;98792.48;1763020;80;21255;-79
2021/11/29 04:57:08;;;;;;;11.22;8.48;;;;;;;9.40;100.00;98796.15;1776763;79;21172;-79
2021/11/29 05:00:15;;;;;;;8.78;7.22;;;;;;;9.41;100.00;98801.42;1774107;81;21229;-79
2021/11/29 05:03:20;;;;;;;8.68;7.70;;;;;;;9.44;100.00;98777.80;1777775;79;21125;-79
2021/11/29 05:06:26;;;;;;;7.75;6.78;;;;;;;9.48;100.00;98774.13;1769970;80;21877;-79
2021/11/29 05:09:33;;;;;;;10.58;8.05;;;;;;;9.51;100.00;98768.27;1764349;80;21335;-79
2021/11/29 05:12:38;;;;;;;9.95;8.58;;;;;;;9.54;100.00;98773.83;1758567;80;21319;-79
2021/11/29 05:15:43;;;;;;;10.10;8.15;;;;;;;9.54;100.00;98760.17;1776631;80;21248;-79
2021/11/29 05:18:50;;;;;;;10.58;7.55;;;;;;;9.53;100.00;98771.63;1764642;80;21371;-79
2021/11/29 05:21:56;;;;;;;15.25;9.00;;;;;;;9.53;100.00;98774.35;1768959;79;21297;-77
2021/11/29 05:25:02;;;;;;;12.33;9.80;;;;;;;9.53;100.00;98761.23;1779881;79;21365;-78
2021/11/29 05:28:08;;;;;;;13.78;9.80;;;;;;;9.52;100.00;98773.20;1774013;79;21469;-79
2021/11/29 05:31:12;;;;;;;11.43;9.10;;;;;;;9.50;100.00;98773.92;1779540;79;21867;-79
2021/11/29 05:34:18;;;;;;;9.15;7.85;;;;;;;9.50;100.00;98772.55;1777380;79;21325;-79
2021/11/29 05:37:25;;;;;;;9.03;7.58;;;;;;;9.47;100.00;98769.20;1770313;79;21307;-79
2021/11/29 05:40:32;;;;;;;14.15;7.90;;;;;;;9.47;100.00;98788.30;1767620;79;21200;-79
2021/11/29 05:43:39;;;;;;;13.35;8.90;;;;;;;9.47;100.00;98789.67;1775507;79;21879;-78
2021/11/29 05:46:46;;;;;;;9.93;8.55;;;;;;;9.46;100.00;98781.17;1782326;79;21232;-78
2021/11/29 05:49:54;;;;;;;9.93;8.15;;;;;;;9.46;100.00;98785.80;1769286;79;21852;-78
2021/11/29 05:53:01;;;;;;;8.98;7.83;;;;;;;9.47;100.00;98779.28;1771905;79;21377;-78
2021/11/29 05:56:08;;;;;;;9.75;7.87;;;;;;;9.44;100.00;98780.52;1768880;79;21765;-78
2021/11/29 05:59:18;;;;;;;7.85;7.05;;;;;;;9.43;100.00;98774.75;1767895;79;21695;-81
2021/11/29 06:02:24;;;;;;;14.60;8.05;;;;;;;9.42;100.00;98766.25;1771880;79;21359;-79
2021/11/29 06:05:30;;;;;;;9.55;7.47;;;;;;;9.39;100.00;98753.01;1762366;79;21336;-79
2021/11/29 06:08:37;;;;;;;8.83;7.90;;;;;;;9.40;100.00;98754.69;1781633;79;21958;-81
2021/11/29 06:11:44;;;;;;;8.28;6.47;;;;;;;9.40;100.00;98749.75;1777578;78;21326;-78
2021/11/29 06:14:50;;;;;;;8.78;7.37;;;;;;;9.39;100.00;98738.53;1717547;81;21340;-78
2021/11/29 06:17:57;;;;;;;8.58;7.65;;;;;;;9.38;100.00;98740.42;1695627;82;21571;-78
2021/11/29 06:21:03;;;;;;;10.98;8.48;;;;;;;9.40;100.00;98747.86;1730563;80;21420;-79
2021/11/29 06:24:08;;;;;;;11.43;8.53;;;;;;;9.40;100.00;98742.41;1714845;81;22047;-78
2021/11/29 06:27:12;;;;;;;12.53;8.93;;;;;;;9.40;100.00;98730.13;1760797;79;21756;-82
2021/11/29 06:30:18;;;;;;;15.28;9.85;;;;;;;9.42;100.00;98730.77;1775765;79;21363;-79
2021/11/29 06:33:24;;;;;;;14.75;10.68;;;;;;;9.45;100.00;98716.70;1779368;79;21298;-79
2021/11/29 06:36:35;;;;;;;13.50;9.85;;;;;;;9.48;100.00;98708.10;1773812;79;21199;-79
2021/11/29 06:39:39;;;;;;;;;;;;;;;9.50;100.00;98719.33;1776269;79;21326;-79
2021/11/29 06:42:45;;;;;;;20.57;12.47;;;;;;;9.52;100.00;98712.63;1768952;78;20262;-80
2021/11/29 06:45:51;;;;;;;18.00;11.83;;;;;;;9.57;100.00;98717.46;1767387;78;21333;-80
2021/11/29 06:48:57;;;;;;;21.40;12.07;;;;;;;9.62;100.00;98710.85;1784537;79;21294;-78
2021/11/29 06:52:05;;;;;;;16.07;12.33;;;;;;;9.68;100.00;98716.30;1773821;79;21176;-79
2021/11/29 06:55:18;;;;;;;21.65;11.10;;;;;;;9.76;100.00;98732.18;1777191;79;21711;-80
2021/11/29 06:58:24;;;;;;;14.18;11.08;;;;;;;9.79;100.00;98733.97;1767334;78;21318;-79
2021/11/29 07:01:29;;;;;;;16.27;10.15;;;;;;;9.83;100.00;98734.37;1772456;78;21315;-79
2021/11/29 07:04:35;;;;;;;19.00;10.60;;;;;;;9.87;100.00;98739.20;1767740;78;21330;-79
2021/11/29 07:07:40;;;;;;;13.68;9.95;;;;;;;9.90;100.00;98742.89;1766846;78;21230;-79
2021/11/29 07:26:30;;;;;;;11.15;7.22;;;;;;;10.08;100.00;98701.28;1792963;78;24199;-78
2021/11/29 07:29:36;;;;;;;10.05;7.30;;;;;;;10.08;100.00;98704.55;1726253;80;21603;-78
2021/11/29 07:32:42;;;;;;;8.70;6.60;;;;;;;10.11;100.00;98701.36;1691681;82;21277;-78
2021/11/29 07:35:50;;;;;;;7.72;5.80;;;;;;;10.12;100.00;98689.41;1723049;80;21260;-78
2021/11/29 07:43:15;;;;;;;11.55;7.85;;;;;;;10.13;100.00;98696.55;1749601;78;21653;-79
2021/11/29 07:46:20;;;;;;;15.15;6.87;;;;;;;10.12;100.00;98697.61;1692443;82;21208;-78
2021/11/29 07:49:28;;;;;;;9.78;6.62;;;;;;;10.07;100.00;98679.62;1684263;82;21491;-78
2021/11/29 07:52:33;;;;;;;14.23;7.50;;;;;;;10.03;100.00;98688.79;1698802;82;22041;-80
2021/11/29 07:55:39;;;;;;;12.63;6.55;;;;;;;10.01;100.00;98670.92;1702309;82;21214;-80
2021/11/29 07:58:44;;;;;;;11.88;7.47;;;;;;;9.97;100.00;98654.97;1712573;81;21360;-79
2021/11/29 08:01:51;;;;;;;10.25;7.55;;;;;;;9.99;100.00;98658.84;1701660;81;21352;-78
2021/11/29 08:04:56;;;;;;;12.63;6.80;;;;;;;10.02;100.00;98652.97;1701524;82;21407;-80
2021/11/29 08:08:02;;;;;;;13.80;6.62;;;;;;;10.03;100.00;98646.45;1698938;81;21220;-80
2021/11/29 08:11:08;;;;;;;10.18;6.42;;;;;;;10.06;100.00;98643.80;1699551;81;21621;-79
2021/11/29 08:14:15;;;;;;;8.00;5.95;;;;;;;10.13;100.00;98658.30;1705273;82;21238;-79
2021/11/29 08:17:23;;;;;;;11.53;6.72;;;;;;;10.14;100.00;98648.52;1692374;82;21209;-77
2021/11/29 08:20:29;;;;;;;10.43;6.42;;;;;;;10.15;100.00;98620.13;1693016;82;22079;-78
2021/11/29 08:23:34;;;;;;;9.48;6.25;;;;;;;10.13;100.00;98633.19;1686766;81;21320;-79
2021/11/29 08:26:43;;;;;;;14.73;6.33;;;;;;;10.08;100.00;98632.15;1691677;83;21920;-78
2021/11/29 08:29:49;;;;;;;9.30;6.17;;;;;;;10.03;100.00;98624.59;1691855;82;21497;-83
2021/11/29 08:32:57;;;;;;;10.45;5.80;;;;;;;10.03;100.00;98608.73;1700750;81;21267;-79
2021/11/29 08:36:03;;;;;;;10.28;6.67;;;;;;;10.04;100.00;98610.41;1623459;83;21236;-79
2021/11/29 08:39:10;;;;;;;11.25;6.08;;;;;;;10.02;100.00;98606.53;1654632;83;22218;-78
2021/11/29 08:42:17;;;;;;;12.68;6.12;;;;;;;10.00;100.00;98588.14;1644433;84;21204;-79
2021/11/29 08:45:22;;;;;;;12.07;5.75;;;;;;;9.94;100.00;98566.63;1653755;84;21214;-79
2021/11/29 08:48:29;;;;;;;11.28;5.97;;;;;;;9.94;100.00;98563.89;1695024;82;21311;-79
2021/11/29 08:51:37;;;;;;;13.00;6.75;;;;;;;9.92;100.00;98563.78;1696165;82;21571;-80
2021/11/29 08:54:50;;;;;;;10.75;6.92;;;;;;;9.87;100.00;98543.11;1694057;82;21202;-79
2021/11/29 08:57:59;;;;;;;10.25;6.33;;;;;;;9.83;100.00;98530.93;1692303;81;21364;-79
2021/11/29 09:01:05;;;;;;;8.88;6.22;;;;;;;9.77;100.00;98526.34;1702519;82;21724;-78
2021/11/29 09:04:13;;;;;;;9.18;5.70;;;;;;;9.74;100.00;98519.43;1697276;82;21229;-78
2021/11/29 09:07:18;;;;;;;14.98;5.87;;;;;;;9.73;100.00;98509.01;1700048;82;21323;-78
2021/11/29 09:10:25;;;;;;;15.28;6.05;;;;;;;9.74;100.00;98512.61;1694714;82;21846;-78
2021/11/29 09:13:32;;;;;;;15.18;5.47;;;;;;;9.78;100.00;98504.80;1697828;82;21265;-78
2021/11/29 09:16:38;;;;;;;10.40;6.17;;;;;;;9.82;100.00;98497.33;1697621;82;21181;-78
2021/11/29 09:19:48;;;;;;;11.80;6.10;;;;;;;9.87;100.00;98483.86;1698684;82;21283;-84
2021/11/29 09:22:58;;;;;;;14.47;6.33;;;;;;;9.95;100.00;98482.80;1667176;84;22466;-78
2021/11/29 09:26:03;;;;;;;13.35;5.92;;;;;;;9.98;100.00;98468.19;1665044;83;21263;-78
2021/11/29 09:29:13;;;;;;;14.47;6.65;;;;;;;10.06;100.00;98453.95;1696127;82;21315;-79
2021/11/29 09:32:21;;;;;;;12.85;6.47;;;;;;;10.11;100.00;98441.84;1690683;82;21358;-78
2021/11/29 09:35:27;;;;;;;10.00;4.92;;;;;;;10.14;100.00;98442.78;1694649;82;21291;-79
2021/11/29 09:38:35;;;;;;;16.10;6.53;;;;;;;10.17;100.00;98425.42;1699495;82;21901;-78
2021/11/29 09:41:42;;;;;;;13.60;6.03;;;;;;;10.19;100.00;98427.93;1693732;82;21347;-78
2021/11/29 09:44:52;;;;;;;14.78;6.30;;;;;;;10.18;100.00;98404.41;1699125;82;21402;-77
2021/11/29 09:47:56;;;;;;;18.73;6.12;;;;;;;10.18;100.00;98395.67;1705948;82;21302;-77
2021/11/29 09:51:02;;;;;;;17.65;6.40;;;;;;;10.21;100.00;98395.78;1686733;82;21234;-78
2021/11/29 09:54:08;;;;;;;13.53;5.78;;;;;;;10.24;100.00;98393.98;1692933;82;21249;-78
2021/11/29 09:57:13;;;;;;;13.72;7.25;;;;;;;10.26;100.00;98393.25;1688400;82;21717;-78
2021/11/29 10:00:24;;;;;;;22.35;6.85;;;;;;;10.28;100.00;98367.06;1699036;82;21414;-78
2021/11/29 10:03:35;;;;;;;13.72;6.30;;;;;;;10.30;100.00;98350.73;1700766;82;21328;-79
2021/11/29 10:06:48;;;;;;;17.55;7.12;;;;;;;10.37;100.00;98332.41;1690453;82;22312;-80
2021/11/29 10:09:58;;;;;;;18.35;6.85;;;;;;;10.43;100.00;98336.13;1710273;81;21285;-78
2021/11/29 10:13:11;;;;;;;14.13;5.12;;;;;;;10.48;100.00;98325.37;1673265;82;21263;-79
2021/11/29 10:16:45;;;;;;;17.62;6.17;;;;;;;10.55;100.00;98303.45;1680389;82;21215;-80
2021/11/29 10:19:52;;;;;;;17.70;6.00;;;;;;;10.63;100.00;98288.11;1656467;84;21328;-78
2021/11/29 10:38:17;;;;;;;25.37;6.37;;;;;;;10.98;100.00;98213.15;1825863;76;22869;-78
2021/11/29 10:41:25;;;;;;;17.12;5.72;;;;;;;10.95;100.00;98192.55;1797210;78;21302;-78
2021/11/29 10:44:40;;;;;;;17.05;5.35;;;;;;;10.99;100.00;98189.66;1782829;78;21312;-79
2021/11/29 10:47:52;;;;;;;11.45;4.70;;;;;;;11.05;100.00;98190.63;1734055;81;21338;-79
2021/11/29 10:50:57;;;;;;;18.35;5.65;;;;;;;11.14;100.00;98218.52;1713590;82;21258;-77
2021/11/29 10:54:09;;;;;;;11.57;4.67;;;;;;;11.16;100.00;98246.50;1664816;83;21316;-79
2021/11/29 10:57:16;;;;;;;15.05;5.00;;;;;;;11.21;100.00;98295.89;1708692;82;21229;-78
2021/11/29 11:00:23;;;;;;;18.10;5.03;;;;;;;11.19;100.00;98263.80;1709710;83;21434;-79
2021/11/29 11:03:29;;;;;;;21.45;5.20;;;;;;;11.17;100.00;98243.52;1738816;81;21401;-80
2021/11/29 11:06:37;;;;;;;17.92;6.17;;;;;;;11.12;100.00;98206.98;1723741;81;21424;-79
2021/11/29 11:10:02;;;;;;;;;;;;;;;11.04;100.00;98187.60;1702810;83;21248;-79
2021/11/29 11:13:09;;;;;;;15.08;5.83;;;;;;;10.95;100.00;98160.27;1713286;82;20349;-78
2021/11/29 11:16:15;;;;;;;19.20;5.97;;;;;;;10.90;100.00;98137.70;1723438;82;21237;-79
2021/11/29 11:19:43;;;;;;;15.60;5.35;;;;;;;10.90;100.00;98132.77;1716929;82;21439;-80
2021/11/29 11:22:59;;;;;;;16.65;5.05;;;;;;;10.93;100.00;98145.46;1716616;82;21228;-78
2021/11/29 11:26:42;;;;;;;19.30;6.42;;;;;;;10.98;100.00;98143.40;1713695;82;21577;-78
2021/11/29 11:29:58;;;;;;;17.80;5.78;;;;;;;10.99;100.00;98156.83;1691205;82;21331;-79
2021/11/29 11:33:19;;;;;;;19.17;6.17;;;;;;;10.95;100.00;98135.11;1717160;82;21114;-78
2021/11/29 11:36:26;;;;;;;15.10;5.45;;;;;;;10.91;100.00;98117.48;1737495;81;21397;-80
2021/11/29 11:39:40;;;;;;;17.85;6.55;;;;;;;10.91;100.00;98107.91;1693291;83;21292;-80
2021/11/29 11:42:49;;;;;;;21.48;6.25;;;;;;;10.88;100.00;98104.30;1667747;83;21231;-79
2021/11/29 11:45:59;;;;;;;;;;;;;;;10.89;100.00;98110.06;1697411;82;21397;-78
2021/11/29 11:49:05;;;;;;;19.73;6.62;;;;;;;10.87;100.00;98104.51;1674905;83;20325;-78
2021/11/29 11:52:14;;;;;;;20.57;7.00;;;;;;;10.84;100.00;98089.95;1676165;83;21375;-78
2021/11/29 11:55:30;;;;;;;19.75;7.00;;;;;;;10.82;100.00;98086.59;1684790;83;21310;-79
2021/11/29 11:58:39;;;;;;;23.40;6.90;;;;;;;10.80;100.00;98081.91;1688244;83;21366;-79
2021/11/29 12:01:48;;;;;;;24.10;6.90;;;;;;;10.79;100.00;98061.93;1683297;84;21454;-81
2021/11/29 12:05:25;;;;;;;20.70;6.42;;;;;;;10.79;100.00;98048.26;1683802;84;21343;-79
2021/11/29 12:08:51;;;;;;;21.10;6.62;;;;;;;10.75;100.00;98034.75;1682517;84;21247;-79
2021/11/29 12:12:02;;;;;;;26.05;7.12;;;;;;;10.72;100.00;98042.03;1680977;83;21287;-80
2021/11/29 12:15:26;;;;;;;23.32;7.22;;;;;;;10.68;100.00;98023.05;1654254;84;21268;-79
2021/11/29 12:18:52;;;;;;;26.75;6.70;;;;;;;10.63;100.00;98007.38;1824612;76;28762;-78
2021/11/29 12:22:01;;;;;;;18.25;5.95;;;;;;;10.64;100.00;97990.45;1822882;77;21306;-79
2021/11/29 12:25:26;;;;;;;19.05;6.95;;;;;;;10.65;100.00;98003.87;1703001;80;21228;-79
2021/11/29 12:28:49;;;;;;;15.03;6.83;;;;;;;10.62;100.00;97992.55;1765287;80;21206;-78
2021/11/29 12:35:13;;;;;;;19.10;7.58;;;;;;;10.62;100.00;97961.13;1843511;76;28177;-79
2021/11/29 12:38:23;;;;;;;20.50;6.95;;;;;;;10.60;100.00;97978.30;1782615;78;21388;-79
2021/11/29 12:41:43;;;;;;;17.40;6.50;;;;;;;10.60;100.00;97983.23;1790968;78;21192;-79
2021/11/29 12:44:54;;;;;;;23.47;7.12;;;;;;;10.60;100.00;97973.66;1771927;78;21334;-79
2021/11/29 12:48:07;;;;;;;35.45;8.35;;;;;;;10.59;100.00;97958.87;1734696;80;21283;-79
2021/11/29 12:51:12;;;;;;;25.75;7.30;;;;;;;10.57;100.00;97947.32;1735041;80;21260;-78
2021/11/29 12:54:48;;;;;;;18.85;6.78;;;;;;;10.56;100.00;97937.46;1749809;80;21561;-80
2021/11/29 12:57:55;;;;;;;19.55;7.25;;;;;;;10.56;100.00;97925.16;1750603;80;21267;-79
2021/11/29 13:01:18;;;;;;;20.97;7.17;;;;;;;10.56;100.00;97908.77;1756165;80;21866;-78
2021/11/29 13:04:27;;;;;;;23.77;7.90;;;;;;;10.59;100.00;97915.14;1736059;81;21753;-78
2021/11/29 13:07:34;;;;;;;29.35;8.33;;;;;;;10.64;100.00;97911.16;1747480;80;21290;-79
2021/11/29 13:11:24;;;;;;;21.55;7.40;;;;;;;10.63;100.00;97911.70;1743006;80;21351;-78
2021/11/29 13:14:33;;;;;;;29.65;8.65;;;;;;;10.62;100.00;97896.87;1740273;80;21569;-79
2021/11/29 13:17:44;;;;;;;19.23;7.65;;;;;;;10.56;100.00;97871.86;1760449;80;21878;-79
2021/11/29 13:20:54;;;;;;;26.37;8.20;;;;;;;10.53;100.00;97832.69;1739706;82;21600;-79
2021/11/29 13:24:08;;;;;;;17.20;8.38;;;;;;;10.51;100.00;97828.00;1740686;80;21758;-78
2021/11/29 13:27:30;;;;;;;22.55;7.42;;;;;;;10.52;100.00;97839.23;1758593;80;21301;-80
2021/11/29 13:30:35;;;;;;;23.65;8.03;;;;;;;10.55;100.00;97826.47;1731480;81;22333;-80
2021/11/29 13:33:44;;;;;;;21.10;7.35;;;;;;;10.61;100.00;97809.94;1762173;80;21355;-79
2021/11/29 13:36:51;;;;;;;21.12;7.55;;;;;;;10.66;100.00;97780.52;1746220;81;21614;-79
2021/11/29 13:40:01;;;;;;;20.23;7.53;;;;;;;10.69;100.00;97769.95;1718779;82;21301;-79
2021/11/29 13:43:07;;;;;;;22.60;7.00;;;;;;;10.73;100.00;97782.08;1753967;80;21338;-79
2021/11/29 13:46:21;;;;;;;23.83;7.78;;;;;;;10.78;100.00;97775.89;1720211;81;21221;-78
2021/11/29 13:49:26;;;;;;;26.33;8.80;;;;;;;10.78;100.00;97752.66;1789001;79;21299;-79
2021/11/29 13:52:30;;;;;;;19.27;7.90;;;;;;;10.75;100.00;97730.71;1714039;81;21641;-79
2021/11/29 13:55:43;;;;;;;26.90;8.40;;;;;;;10.71;100.00;97702.19;1782804;79;21296;-78
2021/11/29 13:58:49;;;;;;;29.90;8.08;;;;;;;10.69;100.00;97691.20;1786971;78;21284;-79
2021/11/29 14:01:56;;;;;;;27.45;8.88;;;;;;;10.72;100.00;97696.17;1779737;78;22443;-79
2021/11/29 14:05:05;;;;;;;27.48;8.95;;;;;;;10.80;100.00;97671.20;1781391;78;21294;-79
2021/11/29 14:08:14;;;;;;;28.23;9.33;;;;;;;10.81;100.00;97655.09;1727078;81;21197;-79
2021/11/29 14:11:29;;;;;;;32.28;8.83;;;;;;;10.82;100.00;97653.18;1724014;82;21771;-78
2021/11/29 14:14:34;;;;;;;33.55;9.85;;;;;;;10.84;100.00;97631.91;1785260;78;21463;-78
2021/11/29 14:17:39;;;;;;;28.10;8.55;;;;;;;10.90;100.00;97600.30;1778939;78;21338;-79
2021/11/29 14:20:45;;;;;;;23.57;9.15;;;;;;;10.91;100.00;97604.69;1780588;79;21315;-79
2021/11/29 14:24:00;;;;;;;26.50;7.90;;;;;;;10.93;100.00;97597.63;1787087;79;21323;-79
2021/11/29 14:27:09;;;;;;;27.25;9.18;;;;;;;10.90;100.00;97582.53;1801692;78;21759;-79
2021/11/29 14:30:15;;;;;;;29.10;9.30;;;;;;;10.86;100.00;97582.72;1779856;78;21318;-79
2021/11/29 14:33:23;;;;;;;27.20;9.48;;;;;;;10.78;100.00;97559.89;1741355;81;21753;-79
2021/11/29 14:36:49;;;;;;;37.85;10.08;;;;;;;10.73;100.00;97548.33;1811801;77;21267;-79
2021/11/29 14:40:04;;;;;;;29.00;9.15;;;;;;;10.71;100.00;97553.19;1802719;79;21820;-79
2021/11/29 14:43:10;;;;;;;29.25;9.55;;;;;;;10.71;100.00;97567.40;1804020;77;21366;-79
2021/11/29 14:46:16;;;;;;;33.15;10.45;;;;;;;10.69;100.00;97551.78;1789397;79;21925;-80
2021/11/29 14:49:28;;;;;;;44.93;11.48;;;;;;;10.67;100.00;97536.15;1812920;79;21200;-79
2021/11/29 14:52:33;;;;;;;30.00;10.50;;;;;;;10.69;100.00;97542.22;1776198;80;21846;-79
2021/11/29 14:55:45;;;;;;;33.65;10.90;;;;;;;10.72;100.00;97543.08;1753163;80;21382;-79
2021/11/29 14:58:52;;;;;;;32.93;10.35;;;;;;;10.72;100.00;97528.87;1764318;80;21822;-80
2021/11/29 15:02:05;;;;;;;31.45;10.75;;;;;;;10.71;100.00;97512.18;1713768;82;21697;-79
2021/11/29 15:05:26;;;;;;;32.23;9.48;;;;;;;10.73;100.00;97502.39;1769286;80;21398;-79
2021/11/29 15:08:35;;;;;;;36.00;9.90;;;;;;;10.71;100.00;97484.02;1710449;84;21901;-79